sensor_id;sensor_type;location;lat;lon;timestamp;P1;durP1;ratioP1;P2;durP2;ratioP2
46757;SDS011;32509;47.750;-3.396;2023-08-31T00:00:42;7.78;;;1.83;;
46757;SDS011;32509;47.750;-3.396;2023-08-31T00:03:12;6.15;;;1.73;;
46757;SDS011;32509;47.750;-3.396;2023-08-31T00:05:42;8.02;;;2.00;;
46757;SDS011;32509;47.750;-3.396;2023-08-31T00:08:09;7.63;;;2.13;;
46757;SDS011;32509;47.750;-3.396;2023-08-31T00:10:38;5.50;;;2.03;;
46757;SDS011;32509;47.750;-3.396;2023-08-31T00:13:04;5.90;;;2.17;;
46757;SDS011;32509;47.750;-3.396;2023-08-31T00:15:33;6.18;;;2.17;;
46757;SDS011;32509;47.750;-3.396;2023-08-31T00:18:00;4.65;;;1.88;;
46757;SDS011;32509;47.750;-3.396;2023-08-31T00:20:28;5.43;;;1.77;;
46757;SDS011;32509;47.750;-3.396;2023-08-31T00:22:55;6.25;;;2.70;;
46757;SDS011;32509;47.750;-3.396;2023-08-31T00:25:21;5.18;;;1.98;;
46757;SDS011;32509;47.750;-3.396;2023-08-31T00:27:47;5.32;;;1.80;;
46757;SDS011;32509;47.750;-3.396;2023-08-31T00:30:13;6.00;;;1.90;;
46757;SDS011;32509;47.750;-3.396;2023-08-31T00:32:40;5.85;;;2.28;;
46757;SDS011;32509;47.750;-3.396;2023-08-31T00:35:09;4.55;;;2.30;;
46757;SDS011;32509;47.750;-3.396;2023-08-31T00:37:35;4.57;;;1.77;;
46757;SDS011;32509;47.750;-3.396;2023-08-31T00:40:01;8.85;;;2.25;;
46757;SDS011;32509;47.750;-3.396;2023-08-31T00:42:29;3.67;;;1.60;;
46757;SDS011;32509;47.750;-3.396;2023-08-31T00:44:55;4.82;;;1.90;;
46757;SDS011;32509;47.750;-3.396;2023-08-31T00:47:22;4.05;;;1.77;;
46757;SDS011;32509;47.750;-3.396;2023-08-31T00:49:48;5.00;;;2.47;;
46757;SDS011;32509;47.750;-3.396;2023-08-31T00:52:14;6.65;;;2.08;;
46757;SDS011;32509;47.750;-3.396;2023-08-31T00:54:40;5.32;;;2.85;;
46757;SDS011;32509;47.750;-3.396;2023-08-31T00:57:07;4.22;;;2.15;;
46757;SDS011;32509;47.750;-3.396;2023-08-31T00:59:33;5.65;;;1.92;;
46757;SDS011;32509;47.750;-3.396;2023-08-31T01:02:03;4.82;;;2.08;;
46757;SDS011;32509;47.750;-3.396;2023-08-31T01:04:51;5.60;;;2.03;;
46757;SDS011;32509;47.750;-3.396;2023-08-31T01:13:02;6.00;;;2.70;;
46757;SDS011;32509;47.750;-3.396;2023-08-31T01:15:36;5.30;;;1.85;;
46757;SDS011;32509;47.750;-3.396;2023-08-31T01:18:05;5.57;;;1.73;;
46757;SDS011;32509;47.750;-3.396;2023-08-31T01:23:06;5.13;;;2.13;;
46757;SDS011;32509;47.750;-3.396;2023-08-31T01:25:35;6.75;;;1.70;;
46757;SDS011;32509;47.750;-3.396;2023-08-31T01:28:02;10.35;;;2.75;;
46757;SDS011;32509;47.750;-3.396;2023-08-31T01:30:31;3.47;;;1.90;;
46757;SDS011;32509;47.750;-3.396;2023-08-31T01:32:57;5.75;;;2.45;;
46757;SDS011;32509;47.750;-3.396;2023-08-31T01:35:26;5.60;;;2.20;;
46757;SDS011;32509;47.750;-3.396;2023-08-31T01:38:02;4.90;;;1.92;;
46757;SDS011;32509;47.750;-3.396;2023-08-31T01:40:50;8.57;;;2.10;;
46757;SDS011;32509;47.750;-3.396;2023-08-31T01:43:22;6.50;;;3.53;;
46757;SDS011;32509;47.750;-3.396;2023-08-31T01:45:48;8.50;;;2.20;;
46757;SDS011;32509;47.750;-3.396;2023-08-31T01:48:15;5.65;;;2.78;;
46757;SDS011;32509;47.750;-3.396;2023-08-31T01:50:41;6.43;;;2.72;;
46757;SDS011;32509;47.750;-3.396;2023-08-31T01:53:07;5.40;;;2.60;;
46757;SDS011;32509;47.750;-3.396;2023-08-31T01:55:33;8.30;;;2.30;;
46757;SDS011;32509;47.750;-3.396;2023-08-31T01:57:59;4.10;;;1.80;;
46757;SDS011;32509;47.750;-3.396;2023-08-31T02:00:25;3.63;;;1.90;;
46757;SDS011;32509;47.750;-3.396;2023-08-31T02:02:51;6.13;;;2.10;;
46757;SDS011;32509;47.750;-3.396;2023-08-31T02:05:17;4.30;;;1.92;;
46757;SDS011;32509;47.750;-3.396;2023-08-31T02:07:43;5.88;;;2.25;;
46757;SDS011;32509;47.750;-3.396;2023-08-31T02:10:09;4.85;;;2.25;;
46757;SDS011;32509;47.750;-3.396;2023-08-31T02:12:35;5.00;;;2.03;;
46757;SDS011;32509;47.750;-3.396;2023-08-31T02:15:04;4.63;;;2.10;;
46757;SDS011;32509;47.750;-3.396;2023-08-31T02:17:33;8.02;;;2.78;;
46757;SDS011;32509;47.750;-3.396;2023-08-31T02:19:59;3.40;;;1.50;;
46757;SDS011;32509;47.750;-3.396;2023-08-31T02:22:26;6.07;;;1.90;;
46757;SDS011;32509;47.750;-3.396;2023-08-31T02:24:52;4.20;;;1.38;;
46757;SDS011;32509;47.750;-3.396;2023-08-31T02:27:18;4.43;;;1.20;;
46757;SDS011;32509;47.750;-3.396;2023-08-31T02:29:44;1.60;;;1.23;;
46757;SDS011;32509;47.750;-3.396;2023-08-31T02:32:09;5.53;;;1.33;;
46757;SDS011;32509;47.750;-3.396;2023-08-31T02:34:35;2.13;;;1.20;;
46757;SDS011;32509;47.750;-3.396;2023-08-31T02:37:01;1.40;;;1.08;;
46757;SDS011;32509;47.750;-3.396;2023-08-31T02:39:27;1.23;;;0.90;;
46757;SDS011;32509;47.750;-3.396;2023-08-31T02:41:52;1.10;;;0.80;;
46757;SDS011;32509;47.750;-3.396;2023-08-31T02:44:18;1.63;;;0.88;;
46757;SDS011;32509;47.750;-3.396;2023-08-31T02:46:44;1.27;;;0.93;;
46757;SDS011;32509;47.750;-3.396;2023-08-31T02:49:09;2.05;;;1.10;;
46757;SDS011;32509;47.750;-3.396;2023-08-31T02:51:35;1.45;;;1.00;;
46757;SDS011;32509;47.750;-3.396;2023-08-31T02:54:03;1.15;;;0.95;;
46757;SDS011;32509;47.750;-3.396;2023-08-31T02:56:29;1.40;;;1.00;;
46757;SDS011;32509;47.750;-3.396;2023-08-31T02:58:55;2.90;;;1.52;;
46757;SDS011;32509;47.750;-3.396;2023-08-31T03:01:21;1.02;;;1.02;;
46757;SDS011;32509;47.750;-3.396;2023-08-31T03:03:48;2.25;;;0.90;;
46757;SDS011;32509;47.750;-3.396;2023-08-31T03:06:14;2.70;;;1.23;;
46757;SDS011;32509;47.750;-3.396;2023-08-31T03:08:40;1.27;;;1.00;;
46757;SDS011;32509;47.750;-3.396;2023-08-31T03:11:06;4.13;;;1.30;;
46757;SDS011;32509;47.750;-3.396;2023-08-31T03:13:32;1.30;;;1.10;;
46757;SDS011;32509;47.750;-3.396;2023-08-31T03:15:59;2.75;;;1.52;;
46757;SDS011;32509;47.750;-3.396;2023-08-31T03:18:25;2.70;;;1.83;;
46757;SDS011;32509;47.750;-3.396;2023-08-31T03:20:51;1.40;;;1.30;;
46757;SDS011;32509;47.750;-3.396;2023-08-31T03:23:17;2.58;;;1.58;;
46757;SDS011;32509;47.750;-3.396;2023-08-31T03:25:42;1.65;;;1.10;;
46757;SDS011;32509;47.750;-3.396;2023-08-31T03:28:08;2.65;;;1.05;;
46757;SDS011;32509;47.750;-3.396;2023-08-31T03:30:35;2.00;;;1.20;;
46757;SDS011;32509;47.750;-3.396;2023-08-31T03:33:01;1.73;;;1.20;;
46757;SDS011;32509;47.750;-3.396;2023-08-31T03:35:27;2.17;;;1.02;;
46757;SDS011;32509;47.750;-3.396;2023-08-31T03:37:54;2.15;;;1.00;;
46757;SDS011;32509;47.750;-3.396;2023-08-31T03:40:21;3.03;;;1.20;;
46757;SDS011;32509;47.750;-3.396;2023-08-31T03:42:47;1.50;;;1.13;;
46757;SDS011;32509;47.750;-3.396;2023-08-31T03:45:14;2.45;;;1.20;;
46757;SDS011;32509;47.750;-3.396;2023-08-31T03:47:40;1.85;;;1.08;;
46757;SDS011;32509;47.750;-3.396;2023-08-31T03:50:06;2.10;;;1.30;;
46757;SDS011;32509;47.750;-3.396;2023-08-31T03:52:33;1.17;;;0.88;;
46757;SDS011;32509;47.750;-3.396;2023-08-31T03:54:59;3.90;;;1.10;;
46757;SDS011;32509;47.750;-3.396;2023-08-31T03:57:24;2.72;;;1.58;;
46757;SDS011;32509;47.750;-3.396;2023-08-31T03:59:50;2.08;;;0.90;;
46757;SDS011;32509;47.750;-3.396;2023-08-31T04:02:18;2.50;;;0.88;;
46757;SDS011;32509;47.750;-3.396;2023-08-31T04:04:44;2.63;;;1.00;;
46757;SDS011;32509;47.750;-3.396;2023-08-31T04:07:12;2.90;;;1.13;;
46757;SDS011;32509;47.750;-3.396;2023-08-31T04:09:38;1.67;;;0.93;;
46757;SDS011;32509;47.750;-3.396;2023-08-31T04:12:04;2.58;;;1.20;;
46757;SDS011;32509;47.750;-3.396;2023-08-31T04:14:30;3.92;;;1.83;;
46757;SDS011;32509;47.750;-3.396;2023-08-31T04:16:55;5.47;;;2.22;;
46757;SDS011;32509;47.750;-3.396;2023-08-31T04:19:21;2.05;;;1.77;;
46757;SDS011;32509;47.750;-3.396;2023-08-31T04:21:47;5.07;;;2.40;;
46757;SDS011;32509;47.750;-3.396;2023-08-31T04:24:14;4.15;;;2.00;;
46757;SDS011;32509;47.750;-3.396;2023-08-31T04:26:39;2.95;;;1.95;;
46757;SDS011;32509;47.750;-3.396;2023-08-31T04:29:05;4.78;;;1.90;;
46757;SDS011;32509;47.750;-3.396;2023-08-31T04:31:31;1.60;;;1.20;;
46757;SDS011;32509;47.750;-3.396;2023-08-31T04:33:57;1.73;;;1.13;;
46757;SDS011;32509;47.750;-3.396;2023-08-31T04:36:23;1.00;;;0.65;;
46757;SDS011;32509;47.750;-3.396;2023-08-31T04:38:50;1.90;;;0.70;;
46757;SDS011;32509;47.750;-3.396;2023-08-31T04:41:16;0.60;;;0.60;;
46757;SDS011;32509;47.750;-3.396;2023-08-31T04:43:43;2.55;;;0.95;;
46757;SDS011;32509;47.750;-3.396;2023-08-31T04:46:08;1.58;;;0.93;;
46757;SDS011;32509;47.750;-3.396;2023-08-31T04:48:35;2.70;;;1.20;;
46757;SDS011;32509;47.750;-3.396;2023-08-31T04:51:01;3.15;;;1.20;;
46757;SDS011;32509;47.750;-3.396;2023-08-31T04:53:29;2.67;;;1.00;;
46757;SDS011;32509;47.750;-3.396;2023-08-31T04:55:55;1.55;;;1.10;;
46757;SDS011;32509;47.750;-3.396;2023-08-31T04:58:21;1.10;;;1.00;;
46757;SDS011;32509;47.750;-3.396;2023-08-31T05:00:47;2.97;;;1.55;;
46757;SDS011;32509;47.750;-3.396;2023-08-31T05:03:13;3.03;;;1.23;;
46757;SDS011;32509;47.750;-3.396;2023-08-31T05:05:39;2.40;;;1.35;;
46757;SDS011;32509;47.750;-3.396;2023-08-31T05:08:07;2.40;;;1.73;;
46757;SDS011;32509;47.750;-3.396;2023-08-31T05:10:35;3.67;;;1.20;;
46757;SDS011;32509;47.750;-3.396;2023-08-31T05:13:01;3.05;;;1.20;;
46757;SDS011;32509;47.750;-3.396;2023-08-31T05:15:29;3.28;;;1.52;;
46757;SDS011;32509;47.750;-3.396;2023-08-31T05:17:55;4.45;;;1.70;;
46757;SDS011;32509;47.750;-3.396;2023-08-31T05:20:21;6.03;;;1.55;;
46757;SDS011;32509;47.750;-3.396;2023-08-31T05:22:48;4.15;;;1.33;;
46757;SDS011;32509;47.750;-3.396;2023-08-31T05:25:17;3.08;;;1.45;;
46757;SDS011;32509;47.750;-3.396;2023-08-31T05:27:42;3.45;;;1.65;;
46757;SDS011;32509;47.750;-3.396;2023-08-31T05:30:08;6.07;;;1.45;;
46757;SDS011;32509;47.750;-3.396;2023-08-31T05:32:34;3.88;;;1.60;;
46757;SDS011;32509;47.750;-3.396;2023-08-31T05:35:00;4.20;;;1.55;;
46757;SDS011;32509;47.750;-3.396;2023-08-31T05:37:26;5.07;;;1.58;;
46757;SDS011;32509;47.750;-3.396;2023-08-31T05:39:56;1.92;;;1.38;;
46757;SDS011;32509;47.750;-3.396;2023-08-31T05:42:22;1.92;;;1.30;;
46757;SDS011;32509;47.750;-3.396;2023-08-31T05:44:48;4.57;;;1.77;;
46757;SDS011;32509;47.750;-3.396;2023-08-31T05:47:14;2.88;;;1.40;;
46757;SDS011;32509;47.750;-3.396;2023-08-31T05:49:40;4.00;;;1.30;;
46757;SDS011;32509;47.750;-3.396;2023-08-31T05:52:05;6.18;;;2.45;;
46757;SDS011;32509;47.750;-3.396;2023-08-31T05:54:31;7.72;;;1.80;;
46757;SDS011;32509;47.750;-3.396;2023-08-31T05:56:57;4.97;;;1.60;;
46757;SDS011;32509;47.750;-3.396;2023-08-31T05:59:23;3.40;;;1.65;;
46757;SDS011;32509;47.750;-3.396;2023-08-31T06:01:49;5.20;;;1.58;;
46757;SDS011;32509;47.750;-3.396;2023-08-31T06:04:14;4.78;;;1.70;;
46757;SDS011;32509;47.750;-3.396;2023-08-31T06:06:40;4.97;;;1.75;;
46757;SDS011;32509;47.750;-3.396;2023-08-31T06:09:06;6.07;;;1.83;;
46757;SDS011;32509;47.750;-3.396;2023-08-31T06:11:32;5.68;;;1.60;;
46757;SDS011;32509;47.750;-3.396;2023-08-31T06:13:58;4.93;;;1.52;;
46757;SDS011;32509;47.750;-3.396;2023-08-31T06:16:23;3.30;;;1.70;;
46757;SDS011;32509;47.750;-3.396;2023-08-31T06:18:49;6.72;;;3.05;;
46757;SDS011;32509;47.750;-3.396;2023-08-31T06:21:16;7.70;;;2.10;;
46757;SDS011;32509;47.750;-3.396;2023-08-31T06:23:42;6.03;;;1.52;;
46757;SDS011;32509;47.750;-3.396;2023-08-31T06:26:08;7.13;;;2.38;;
46757;SDS011;32509;47.750;-3.396;2023-08-31T06:28:33;6.88;;;1.75;;
46757;SDS011;32509;47.750;-3.396;2023-08-31T06:30:59;5.00;;;1.42;;
46757;SDS011;32509;47.750;-3.396;2023-08-31T06:33:25;4.05;;;1.85;;
46757;SDS011;32509;47.750;-3.396;2023-08-31T06:35:51;5.78;;;1.83;;
46757;SDS011;32509;47.750;-3.396;2023-08-31T06:38:17;7.90;;;1.60;;
46757;SDS011;32509;47.750;-3.396;2023-08-31T06:40:43;6.38;;;1.55;;
46757;SDS011;32509;47.750;-3.396;2023-08-31T06:43:09;6.65;;;1.85;;
46757;SDS011;32509;47.750;-3.396;2023-08-31T06:45:35;8.63;;;1.75;;
46757;SDS011;32509;47.750;-3.396;2023-08-31T06:48:01;4.55;;;1.45;;
46757;SDS011;32509;47.750;-3.396;2023-08-31T06:50:27;5.20;;;1.52;;
46757;SDS011;32509;47.750;-3.396;2023-08-31T06:52:53;4.50;;;1.42;;
46757;SDS011;32509;47.750;-3.396;2023-08-31T06:55:21;6.35;;;1.73;;
46757;SDS011;32509;47.750;-3.396;2023-08-31T06:57:48;5.53;;;1.23;;
46757;SDS011;32509;47.750;-3.396;2023-08-31T07:00:14;3.75;;;1.38;;
46757;SDS011;32509;47.750;-3.396;2023-08-31T07:02:40;2.58;;;1.05;;
46757;SDS011;32509;47.750;-3.396;2023-08-31T07:05:07;0.57;;;0.57;;
46757;SDS011;32509;47.750;-3.396;2023-08-31T07:07:33;2.58;;;0.70;;
46757;SDS011;32509;47.750;-3.396;2023-08-31T07:09:58;1.45;;;0.60;;
46757;SDS011;32509;47.750;-3.396;2023-08-31T07:12:24;1.92;;;0.70;;
46757;SDS011;32509;47.750;-3.396;2023-08-31T07:14:50;0.60;;;0.60;;
46757;SDS011;32509;47.750;-3.396;2023-08-31T07:17:19;3.30;;;0.60;;
46757;SDS011;32509;47.750;-3.396;2023-08-31T07:19:45;1.05;;;0.60;;
46757;SDS011;32509;47.750;-3.396;2023-08-31T07:22:11;1.70;;;0.50;;
46757;SDS011;32509;47.750;-3.396;2023-08-31T07:24:37;1.23;;;0.82;;
46757;SDS011;32509;47.750;-3.396;2023-08-31T07:27:03;0.75;;;0.68;;
46757;SDS011;32509;47.750;-3.396;2023-08-31T07:29:29;8.55;;;1.88;;
46757;SDS011;32509;47.750;-3.396;2023-08-31T07:31:56;0.70;;;0.40;;
46757;SDS011;32509;47.750;-3.396;2023-08-31T07:34:22;0.88;;;0.40;;
46757;SDS011;32509;47.750;-3.396;2023-08-31T07:36:48;2.25;;;0.47;;
46757;SDS011;32509;47.750;-3.396;2023-08-31T07:39:14;1.10;;;0.50;;
46757;SDS011;32509;47.750;-3.396;2023-08-31T07:41:42;1.30;;;0.50;;
46757;SDS011;32509;47.750;-3.396;2023-08-31T07:44:08;2.65;;;0.63;;
46757;SDS011;32509;47.750;-3.396;2023-08-31T07:46:34;2.47;;;0.70;;
46757;SDS011;32509;47.750;-3.396;2023-08-31T07:49:00;1.10;;;0.60;;
46757;SDS011;32509;47.750;-3.396;2023-08-31T07:51:27;0.85;;;0.70;;
46757;SDS011;32509;47.750;-3.396;2023-08-31T07:53:53;4.70;;;0.90;;
46757;SDS011;32509;47.750;-3.396;2023-08-31T07:56:18;5.15;;;0.80;;
46757;SDS011;32509;47.750;-3.396;2023-08-31T07:58:44;2.10;;;1.08;;
46757;SDS011;32509;47.750;-3.396;2023-08-31T08:01:10;5.07;;;1.10;;
46757;SDS011;32509;47.750;-3.396;2023-08-31T08:03:36;4.18;;;1.23;;
46757;SDS011;32509;47.750;-3.396;2023-08-31T08:06:01;5.78;;;1.98;;
46757;SDS011;32509;47.750;-3.396;2023-08-31T08:08:28;6.10;;;1.35;;
46757;SDS011;32509;47.750;-3.396;2023-08-31T08:10:54;5.00;;;1.55;;
46757;SDS011;32509;47.750;-3.396;2023-08-31T08:13:20;5.70;;;1.40;;
46757;SDS011;32509;47.750;-3.396;2023-08-31T08:15:46;7.05;;;1.67;;
46757;SDS011;32509;47.750;-3.396;2023-08-31T08:18:12;10.90;;;3.60;;
46757;SDS011;32509;47.750;-3.396;2023-08-31T08:20:38;3.90;;;1.70;;
46757;SDS011;32509;47.750;-3.396;2023-08-31T08:23:05;8.07;;;1.67;;
46757;SDS011;32509;47.750;-3.396;2023-08-31T08:25:31;5.05;;;1.55;;
46757;SDS011;32509;47.750;-3.396;2023-08-31T08:27:57;5.18;;;1.67;;
46757;SDS011;32509;47.750;-3.396;2023-08-31T08:30:23;8.18;;;2.17;;
46757;SDS011;32509;47.750;-3.396;2023-08-31T08:32:49;7.65;;;1.63;;
46757;SDS011;32509;47.750;-3.396;2023-08-31T08:35:14;6.85;;;2.15;;
46757;SDS011;32509;47.750;-3.396;2023-08-31T08:37:40;9.30;;;2.20;;
46757;SDS011;32509;47.750;-3.396;2023-08-31T08:40:06;12.77;;;2.15;;
46757;SDS011;32509;47.750;-3.396;2023-08-31T08:42:32;4.72;;;1.75;;
46757;SDS011;32509;47.750;-3.396;2023-08-31T08:45:15;11.93;;;3.03;;
46757;SDS011;32509;47.750;-3.396;2023-08-31T08:47:44;5.90;;;2.00;;
46757;SDS011;32509;47.750;-3.396;2023-08-31T08:50:12;10.00;;;2.75;;
46757;SDS011;32509;47.750;-3.396;2023-08-31T08:52:41;14.20;;;2.05;;
46757;SDS011;32509;47.750;-3.396;2023-08-31T08:55:07;6.50;;;2.20;;
46757;SDS011;32509;47.750;-3.396;2023-08-31T08:57:34;11.52;;;3.05;;
46757;SDS011;32509;47.750;-3.396;2023-08-31T09:00:00;6.38;;;2.63;;
46757;SDS011;32509;47.750;-3.396;2023-08-31T09:02:28;6.63;;;2.53;;
46757;SDS011;32509;47.750;-3.396;2023-08-31T09:04:53;10.80;;;3.70;;
46757;SDS011;32509;47.750;-3.396;2023-08-31T09:07:23;6.53;;;2.70;;
46757;SDS011;32509;47.750;-3.396;2023-08-31T09:09:52;5.20;;;2.88;;
46757;SDS011;32509;47.750;-3.396;2023-08-31T09:12:21;1.92;;;1.60;;
46757;SDS011;32509;47.750;-3.396;2023-08-31T09:15:03;3.33;;;1.75;;
46757;SDS011;32509;47.750;-3.396;2023-08-31T09:20:04;4.65;;;2.72;;
46757;SDS011;32509;47.750;-3.396;2023-08-31T09:22:31;6.93;;;2.65;;
46757;SDS011;32509;47.750;-3.396;2023-08-31T09:24:58;8.60;;;2.85;;
46757;SDS011;32509;47.750;-3.396;2023-08-31T09:27:24;7.90;;;3.28;;
46757;SDS011;32509;47.750;-3.396;2023-08-31T09:29:53;5.30;;;2.38;;
46757;SDS011;32509;47.750;-3.396;2023-08-31T09:32:20;8.00;;;3.08;;
46757;SDS011;32509;47.750;-3.396;2023-08-31T09:34:46;8.77;;;3.03;;
46757;SDS011;32509;47.750;-3.396;2023-08-31T09:37:15;14.75;;;3.65;;
46757;SDS011;32509;47.750;-3.396;2023-08-31T09:39:44;15.23;;;3.03;;
46757;SDS011;32509;47.750;-3.396;2023-08-31T09:42:10;9.48;;;2.90;;
46757;SDS011;32509;47.750;-3.396;2023-08-31T09:44:39;7.03;;;2.50;;
46757;SDS011;32509;47.750;-3.396;2023-08-31T09:47:07;7.32;;;2.78;;
46757;SDS011;32509;47.750;-3.396;2023-08-31T09:49:34;7.22;;;3.45;;
46757;SDS011;32509;47.750;-3.396;2023-08-31T09:52:00;9.07;;;2.55;;
46757;SDS011;32509;47.750;-3.396;2023-08-31T09:54:29;9.95;;;2.65;;
46757;SDS011;32509;47.750;-3.396;2023-08-31T09:56:56;11.82;;;2.60;;
46757;SDS011;32509;47.750;-3.396;2023-08-31T09:59:25;14.70;;;3.08;;
46757;SDS011;32509;47.750;-3.396;2023-08-31T10:01:52;13.25;;;3.15;;
46757;SDS011;32509;47.750;-3.396;2023-08-31T10:04:17;11.18;;;2.83;;
46757;SDS011;32509;47.750;-3.396;2023-08-31T10:06:43;12.98;;;2.58;;
46757;SDS011;32509;47.750;-3.396;2023-08-31T10:09:09;8.18;;;2.95;;
46757;SDS011;32509;47.750;-3.396;2023-08-31T10:11:37;13.13;;;2.15;;
46757;SDS011;32509;47.750;-3.396;2023-08-31T10:14:04;6.22;;;2.20;;
46757;SDS011;32509;47.750;-3.396;2023-08-31T10:16:30;8.90;;;2.22;;
46757;SDS011;32509;47.750;-3.396;2023-08-31T10:18:57;10.98;;;3.10;;
46757;SDS011;32509;47.750;-3.396;2023-08-31T10:21:23;12.50;;;3.58;;
46757;SDS011;32509;47.750;-3.396;2023-08-31T10:23:49;10.88;;;2.85;;
46757;SDS011;32509;47.750;-3.396;2023-08-31T10:26:34;11.43;;;2.85;;
46757;SDS011;32509;47.750;-3.396;2023-08-31T10:29:00;12.25;;;2.80;;
46757;SDS011;32509;47.750;-3.396;2023-08-31T10:31:34;10.15;;;2.90;;
46757;SDS011;32509;47.750;-3.396;2023-08-31T10:34:04;14.77;;;4.07;;
46757;SDS011;32509;47.750;-3.396;2023-08-31T10:36:38;12.80;;;3.60;;
46757;SDS011;32509;47.750;-3.396;2023-08-31T10:39:07;12.27;;;2.78;;
46757;SDS011;32509;47.750;-3.396;2023-08-31T10:41:36;13.43;;;2.72;;
46757;SDS011;32509;47.750;-3.396;2023-08-31T10:44:02;15.77;;;3.08;;
46757;SDS011;32509;47.750;-3.396;2023-08-31T10:46:43;13.15;;;3.40;;
46757;SDS011;32509;47.750;-3.396;2023-08-31T10:51:35;13.15;;;3.13;;
46757;SDS011;32509;47.750;-3.396;2023-08-31T10:54:06;10.13;;;3.08;;
46757;SDS011;32509;47.750;-3.396;2023-08-31T11:02:29;11.80;;;3.05;;
46757;SDS011;32509;47.750;-3.396;2023-08-31T11:05:08;6.95;;;2.22;;
46757;SDS011;32509;47.750;-3.396;2023-08-31T11:07:34;3.80;;;1.75;;
46757;SDS011;32509;47.750;-3.396;2023-08-31T11:10:08;4.13;;;1.33;;
46757;SDS011;32509;47.750;-3.396;2023-08-31T11:12:55;6.07;;;1.50;;
46757;SDS011;32509;47.750;-3.396;2023-08-31T11:15:23;6.07;;;1.88;;
46757;SDS011;32509;47.750;-3.396;2023-08-31T11:17:55;4.28;;;1.75;;
46757;SDS011;32509;47.750;-3.396;2023-08-31T11:20:21;3.95;;;1.75;;
46757;SDS011;32509;47.750;-3.396;2023-08-31T11:22:48;7.65;;;2.38;;
46757;SDS011;32509;47.750;-3.396;2023-08-31T11:25:15;5.45;;;1.88;;
46757;SDS011;32509;47.750;-3.396;2023-08-31T11:27:42;9.05;;;2.15;;
46757;SDS011;32509;47.750;-3.396;2023-08-31T11:30:18;7.97;;;3.65;;
46757;SDS011;32509;47.750;-3.396;2023-08-31T11:32:49;13.18;;;2.75;;
46757;SDS011;32509;47.750;-3.396;2023-08-31T11:35:16;9.35;;;2.95;;
46757;SDS011;32509;47.750;-3.396;2023-08-31T11:37:43;7.30;;;2.35;;
46757;SDS011;32509;47.750;-3.396;2023-08-31T11:40:10;8.90;;;3.25;;
46757;SDS011;32509;47.750;-3.396;2023-08-31T11:42:36;9.88;;;2.42;;
46757;SDS011;32509;47.750;-3.396;2023-08-31T11:45:02;3.25;;;1.83;;
46757;SDS011;32509;47.750;-3.396;2023-08-31T11:47:31;11.20;;;2.53;;
46757;SDS011;32509;47.750;-3.396;2023-08-31T11:49:57;10.68;;;2.90;;
46757;SDS011;32509;47.750;-3.396;2023-08-31T11:52:24;8.27;;;1.98;;
46757;SDS011;32509;47.750;-3.396;2023-08-31T11:54:53;12.68;;;2.78;;
46757;SDS011;32509;47.750;-3.396;2023-08-31T11:57:19;6.35;;;2.00;;
46757;SDS011;32509;47.750;-3.396;2023-08-31T11:59:51;11.20;;;2.83;;
46757;SDS011;32509;47.750;-3.396;2023-08-31T12:02:20;12.13;;;2.40;;
46757;SDS011;32509;47.750;-3.396;2023-08-31T12:04:46;5.57;;;1.98;;
46757;SDS011;32509;47.750;-3.396;2023-08-31T12:07:16;10.70;;;2.30;;
46757;SDS011;32509;47.750;-3.396;2023-08-31T12:09:43;5.60;;;2.53;;
46757;SDS011;32509;47.750;-3.396;2023-08-31T12:12:10;10.73;;;2.67;;
46757;SDS011;32509;47.750;-3.396;2023-08-31T12:14:38;10.90;;;2.90;;
46757;SDS011;32509;47.750;-3.396;2023-08-31T12:17:05;9.05;;;2.55;;
46757;SDS011;32509;47.750;-3.396;2023-08-31T12:19:32;9.65;;;1.98;;
46757;SDS011;32509;47.750;-3.396;2023-08-31T12:22:01;13.25;;;2.75;;
46757;SDS011;32509;47.750;-3.396;2023-08-31T12:24:26;5.15;;;2.20;;
46757;SDS011;32509;47.750;-3.396;2023-08-31T12:26:52;6.15;;;2.15;;
46757;SDS011;32509;47.750;-3.396;2023-08-31T12:29:21;7.55;;;2.10;;
46757;SDS011;32509;47.750;-3.396;2023-08-31T12:31:48;8.38;;;2.03;;
46757;SDS011;32509;47.750;-3.396;2023-08-31T12:34:14;5.82;;;1.48;;
46757;SDS011;32509;47.750;-3.396;2023-08-31T12:36:40;6.22;;;1.48;;
46757;SDS011;32509;47.750;-3.396;2023-08-31T12:39:07;2.15;;;1.52;;
46757;SDS011;32509;47.750;-3.396;2023-08-31T12:41:38;7.40;;;1.58;;
46757;SDS011;32509;47.750;-3.396;2023-08-31T12:44:05;2.67;;;1.45;;
46757;SDS011;32509;47.750;-3.396;2023-08-31T12:46:32;4.47;;;1.75;;
46757;SDS011;32509;47.750;-3.396;2023-08-31T12:48:58;5.68;;;1.98;;
46757;SDS011;32509;47.750;-3.396;2023-08-31T12:51:29;5.28;;;1.77;;
46757;SDS011;32509;47.750;-3.396;2023-08-31T12:53:55;5.85;;;1.67;;
46757;SDS011;32509;47.750;-3.396;2023-08-31T12:56:22;8.00;;;1.92;;
46757;SDS011;32509;47.750;-3.396;2023-08-31T12:58:51;5.78;;;1.67;;
46757;SDS011;32509;47.750;-3.396;2023-08-31T13:01:18;5.00;;;1.88;;
46757;SDS011;32509;47.750;-3.396;2023-08-31T13:03:45;6.50;;;1.52;;
46757;SDS011;32509;47.750;-3.396;2023-08-31T13:06:12;5.03;;;1.80;;
46757;SDS011;32509;47.750;-3.396;2023-08-31T13:08:44;5.97;;;1.85;;
46757;SDS011;32509;47.750;-3.396;2023-08-31T13:11:10;10.18;;;2.42;;
46757;SDS011;32509;47.750;-3.396;2023-08-31T13:13:37;5.03;;;2.47;;
46757;SDS011;32509;47.750;-3.396;2023-08-31T13:16:03;8.57;;;2.03;;
46757;SDS011;32509;47.750;-3.396;2023-08-31T13:18:29;17.00;;;3.45;;
46757;SDS011;32509;47.750;-3.396;2023-08-31T13:20:55;8.38;;;2.85;;
46757;SDS011;32509;47.750;-3.396;2023-08-31T13:23:21;8.23;;;2.38;;
46757;SDS011;32509;47.750;-3.396;2023-08-31T13:25:48;13.43;;;2.55;;
46757;SDS011;32509;47.750;-3.396;2023-08-31T13:28:15;6.78;;;2.33;;
46757;SDS011;32509;47.750;-3.396;2023-08-31T13:30:41;10.88;;;2.75;;
46757;SDS011;32509;47.750;-3.396;2023-08-31T13:33:07;11.35;;;2.40;;
46757;SDS011;32509;47.750;-3.396;2023-08-31T13:35:34;7.90;;;2.13;;
46757;SDS011;32509;47.750;-3.396;2023-08-31T13:38:01;10.63;;;2.30;;
46757;SDS011;32509;47.750;-3.396;2023-08-31T13:40:28;9.50;;;3.13;;
46757;SDS011;32509;47.750;-3.396;2023-08-31T13:42:58;13.45;;;3.55;;
46757;SDS011;32509;47.750;-3.396;2023-08-31T13:45:33;11.68;;;3.35;;
46757;SDS011;32509;47.750;-3.396;2023-08-31T13:47:59;23.00;;;3.10;;
46757;SDS011;32509;47.750;-3.396;2023-08-31T13:50:26;5.90;;;3.08;;
46757;SDS011;32509;47.750;-3.396;2023-08-31T13:52:52;12.13;;;2.90;;
46757;SDS011;32509;47.750;-3.396;2023-08-31T13:55:18;12.02;;;3.00;;
46757;SDS011;32509;47.750;-3.396;2023-08-31T13:57:44;10.32;;;2.33;;
46757;SDS011;32509;47.750;-3.396;2023-08-31T14:00:10;11.90;;;3.53;;
46757;SDS011;32509;47.750;-3.396;2023-08-31T14:02:40;13.80;;;2.95;;
46757;SDS011;32509;47.750;-3.396;2023-08-31T14:05:07;11.93;;;3.38;;
46757;SDS011;32509;47.750;-3.396;2023-08-31T14:07:34;15.60;;;5.18;;
46757;SDS011;32509;47.750;-3.396;2023-08-31T14:10:00;11.98;;;3.03;;
46757;SDS011;32509;47.750;-3.396;2023-08-31T14:12:26;14.98;;;3.33;;
46757;SDS011;32509;47.750;-3.396;2023-08-31T14:14:52;7.55;;;3.88;;
46757;SDS011;32509;47.750;-3.396;2023-08-31T14:17:18;11.45;;;3.28;;
46757;SDS011;32509;47.750;-3.396;2023-08-31T14:19:44;11.52;;;2.90;;
46757;SDS011;32509;47.750;-3.396;2023-08-31T14:22:10;6.28;;;2.63;;
46757;SDS011;32509;47.750;-3.396;2023-08-31T14:24:36;11.02;;;2.38;;
46757;SDS011;32509;47.750;-3.396;2023-08-31T14:27:02;9.13;;;2.13;;
46757;SDS011;32509;47.750;-3.396;2023-08-31T14:29:28;10.68;;;2.55;;
46757;SDS011;32509;47.750;-3.396;2023-08-31T14:31:54;14.82;;;4.03;;
46757;SDS011;32509;47.750;-3.396;2023-08-31T14:34:23;13.90;;;4.00;;
46757;SDS011;32509;47.750;-3.396;2023-08-31T14:36:50;13.10;;;3.28;;
46757;SDS011;32509;47.750;-3.396;2023-08-31T14:39:17;6.60;;;2.38;;
46757;SDS011;32509;47.750;-3.396;2023-08-31T14:41:43;8.80;;;2.30;;
46757;SDS011;32509;47.750;-3.396;2023-08-31T14:44:09;5.40;;;2.72;;
46757;SDS011;32509;47.750;-3.396;2023-08-31T14:46:36;5.30;;;1.98;;
46757;SDS011;32509;47.750;-3.396;2023-08-31T14:49:01;6.40;;;2.20;;